Aérodrome :







RETROUVEZ-NOUS SUR...

 
LOGIN :

S'inscrire | Disclaimer

   EN    FR    IT 

 









Légende :    VFR   VFR Marginal   IFR   IFR Intensif   IFR Très Intensif
Visi : 
Plafond : 
>= 8 km
>= 3000ft
5 à 8 km
1000 à 3000 ft
1500m à 5 km
500 à 1000 ft
800 à 1500m
200 à 500 ft
< 800m
< 200 ft
Symboles :   Orages  Brouillard  Fortes neiges  Fortes précipitations  Vent > 20 kt






- Altitude de l'aérodrome : 234 ft
- Code IATA : PBG


KPBG - Plattsburgh International

DERNIER METAR :
  • 011253Z AUTO 12007KT 10SM FEW055 10/04 A3019 RMK AO2 SLP223 T01000039

METARs EXPIRÉS :
  • 011153Z AUTO 14003KT 10SM OVC055 08/04 A3019 RMK AO2 SLP225 70001 T00780039 10078 20039 51008
  • 011053Z AUTO VRB03KT 10SM SCT060 BKN080 07/02 A3019 RMK AO2 SLP224 T00720022

TAF KPBG
Valide du 01 à 12h jusqu'au 02 à 12h UTC


011120Z 0112/0212 VRB04KT P6SM SCT070
FM011600 33007KT P6SM BKN070
FM012000 32008KT P6SM VCSH BKN050
FM020000 VRB03KT P6SM SCT070
FIR KZBW / Amérique du Nord



MET'MAP, la Météo Aéronautique d'un coup d'oeil ! - Copyright ORBIFLY Décembre 2007 - Disclaimer

ORBIFLY MET'MAP TEAM :

Programmation & Développement : Alexandra Zaïnal
Sur une idée originale de : Baudouin d'Aumeries
Assistance à la programmation : Marc-Olivier Méhu
Soutien technique & logistique : Manuel Goepfert

Contact : metmap@orbifly.com




SOURCES & CREDITS :

   NOAA